sensor_id;sensor_type;location;lat;lon;timestamp;P1;durP1;ratioP1;P2;durP2;ratioP2
9056;SDS011;4563;54.756;9.400;2023-04-15T00:00:05;7.77;;;6.97;;
9056;SDS011;4563;54.756;9.400;2023-04-15T00:02:34;7.47;;;6.77;;
9056;SDS011;4563;54.756;9.400;2023-04-15T00:05:01;8.07;;;6.87;;
9056;SDS011;4563;54.756;9.400;2023-04-15T00:07:28;6.77;;;6.07;;
9056;SDS011;4563;54.756;9.400;2023-04-15T00:09:57;6.83;;;6.20;;
9056;SDS011;4563;54.756;9.400;2023-04-15T00:12:24;8.17;;;6.90;;
9056;SDS011;4563;54.756;9.400;2023-04-15T00:14:52;7.63;;;6.87;;
9056;SDS011;4563;54.756;9.400;2023-04-15T00:17:21;7.83;;;7.07;;
9056;SDS011;4563;54.756;9.400;2023-04-15T00:19:48;8.07;;;6.60;;
9056;SDS011;4563;54.756;9.400;2023-04-15T00:22:14;7.53;;;6.73;;
9056;SDS011;4563;54.756;9.400;2023-04-15T00:24:42;7.97;;;7.17;;
9056;SDS011;4563;54.756;9.400;2023-04-15T00:27:10;7.93;;;6.97;;
9056;SDS011;4563;54.756;9.400;2023-04-15T00:29:37;11.10;;;6.60;;
9056;SDS011;4563;54.756;9.400;2023-04-15T00:32:04;7.17;;;6.10;;
9056;SDS011;4563;54.756;9.400;2023-04-15T00:34:32;7.47;;;6.33;;
9056;SDS011;4563;54.756;9.400;2023-04-15T00:37:01;7.03;;;6.33;;
9056;SDS011;4563;54.756;9.400;2023-04-15T00:39:28;7.63;;;6.93;;
9056;SDS011;4563;54.756;9.400;2023-04-15T00:41:54;7.07;;;6.33;;
9056;SDS011;4563;54.756;9.400;2023-04-15T00:44:24;8.33;;;6.67;;
9056;SDS011;4563;54.756;9.400;2023-04-15T00:46:51;7.77;;;6.87;;
9056;SDS011;4563;54.756;9.400;2023-04-15T00:49:18;7.20;;;6.00;;
9056;SDS011;4563;54.756;9.400;2023-04-15T00:51:45;6.33;;;5.70;;
9056;SDS011;4563;54.756;9.400;2023-04-15T00:54:12;6.20;;;5.60;;
9056;SDS011;4563;54.756;9.400;2023-04-15T00:56:39;6.27;;;5.63;;
9056;SDS011;4563;54.756;9.400;2023-04-15T00:59:06;6.47;;;4.83;;
9056;SDS011;4563;54.756;9.400;2023-04-15T01:01:35;5.23;;;4.73;;
9056;SDS011;4563;54.756;9.400;2023-04-15T01:04:03;6.10;;;5.17;;
9056;SDS011;4563;54.756;9.400;2023-04-15T01:06:30;5.53;;;5.03;;
9056;SDS011;4563;54.756;9.400;2023-04-15T01:08:58;8.80;;;5.10;;
9056;SDS011;4563;54.756;9.400;2023-04-15T01:11:25;5.93;;;5.37;;
9056;SDS011;4563;54.756;9.400;2023-04-15T01:13:53;7.40;;;5.83;;
9056;SDS011;4563;54.756;9.400;2023-04-15T01:16:21;6.83;;;6.07;;
9056;SDS011;4563;54.756;9.400;2023-04-15T01:18:49;8.67;;;6.87;;
9056;SDS011;4563;54.756;9.400;2023-04-15T01:21:17;7.13;;;6.33;;
9056;SDS011;4563;54.756;9.400;2023-04-15T01:23:46;9.57;;;7.20;;
9056;SDS011;4563;54.756;9.400;2023-04-15T01:26:15;8.07;;;7.27;;
9056;SDS011;4563;54.756;9.400;2023-04-15T01:28:43;8.93;;;7.60;;
9056;SDS011;4563;54.756;9.400;2023-04-15T01:31:10;8.43;;;7.53;;
9056;SDS011;4563;54.756;9.400;2023-04-15T01:33:38;11.00;;;7.00;;
9056;SDS011;4563;54.756;9.400;2023-04-15T01:36:07;7.80;;;6.93;;
9056;SDS011;4563;54.756;9.400;2023-04-15T01:38:35;7.40;;;6.53;;
9056;SDS011;4563;54.756;9.400;2023-04-15T01:41:02;6.40;;;5.83;;
9056;SDS011;4563;54.756;9.400;2023-04-15T01:43:32;7.30;;;6.60;;
9056;SDS011;4563;54.756;9.400;2023-04-15T01:46:00;6.97;;;6.37;;
9056;SDS011;4563;54.756;9.400;2023-04-15T01:48:27;7.07;;;6.00;;
9056;SDS011;4563;54.756;9.400;2023-04-15T01:50:54;5.97;;;5.10;;
9056;SDS011;4563;54.756;9.400;2023-04-15T01:53:22;7.93;;;6.27;;
9056;SDS011;4563;54.756;9.400;2023-04-15T01:55:49;6.97;;;6.30;;
9056;SDS011;4563;54.756;9.400;2023-04-15T01:58:16;6.30;;;5.23;;
9056;SDS011;4563;54.756;9.400;2023-04-15T02:00:45;8.80;;;8.00;;
9056;SDS011;4563;54.756;9.400;2023-04-15T02:03:12;5.80;;;4.80;;
9056;SDS011;4563;54.756;9.400;2023-04-15T02:05:38;5.23;;;4.83;;
9056;SDS011;4563;54.756;9.400;2023-04-15T02:08:05;4.83;;;4.43;;
9056;SDS011;4563;54.756;9.400;2023-04-15T02:10:32;8.03;;;4.57;;
9056;SDS011;4563;54.756;9.400;2023-04-15T02:12:59;4.87;;;4.13;;
9056;SDS011;4563;54.756;9.400;2023-04-15T02:15:25;5.63;;;4.97;;
9056;SDS011;4563;54.756;9.400;2023-04-15T02:17:56;4.93;;;4.53;;
9056;SDS011;4563;54.756;9.400;2023-04-15T02:20:24;4.73;;;4.33;;
9056;SDS011;4563;54.756;9.400;2023-04-15T02:22:51;4.93;;;4.53;;
9056;SDS011;4563;54.756;9.400;2023-04-15T02:25:18;8.17;;;6.23;;
9056;SDS011;4563;54.756;9.400;2023-04-15T02:27:45;5.13;;;4.73;;
9056;SDS011;4563;54.756;9.400;2023-04-15T02:30:12;5.13;;;4.67;;
9056;SDS011;4563;54.756;9.400;2023-04-15T02:32:39;5.10;;;4.47;;
9056;SDS011;4563;54.756;9.400;2023-04-15T02:35:10;7.17;;;4.63;;
9056;SDS011;4563;54.756;9.400;2023-04-15T02:37:37;5.47;;;5.00;;
9056;SDS011;4563;54.756;9.400;2023-04-15T02:40:10;4.80;;;4.30;;
9056;SDS011;4563;54.756;9.400;2023-04-15T02:42:38;5.47;;;4.97;;
9056;SDS011;4563;54.756;9.400;2023-04-15T02:45:05;5.83;;;5.00;;
9056;SDS011;4563;54.756;9.400;2023-04-15T02:47:33;4.60;;;4.20;;
9056;SDS011;4563;54.756;9.400;2023-04-15T02:50:01;4.67;;;4.33;;
9056;SDS011;4563;54.756;9.400;2023-04-15T02:52:30;4.30;;;4.00;;
9056;SDS011;4563;54.756;9.400;2023-04-15T02:54:57;3.93;;;3.63;;
9056;SDS011;4563;54.756;9.400;2023-04-15T02:57:26;4.67;;;4.23;;
9056;SDS011;4563;54.756;9.400;2023-04-15T02:59:53;4.53;;;4.20;;
9056;SDS011;4563;54.756;9.400;2023-04-15T03:02:20;3.77;;;3.47;;
9056;SDS011;4563;54.756;9.400;2023-04-15T03:04:47;4.07;;;3.73;;
9056;SDS011;4563;54.756;9.400;2023-04-15T03:07:14;3.97;;;3.67;;
9056;SDS011;4563;54.756;9.400;2023-04-15T03:09:42;4.60;;;3.30;;
9056;SDS011;4563;54.756;9.400;2023-04-15T03:12:09;3.67;;;3.37;;
9056;SDS011;4563;54.756;9.400;2023-04-15T03:14:37;7.40;;;6.70;;
9056;SDS011;4563;54.756;9.400;2023-04-15T03:17:04;3.83;;;3.53;;
9056;SDS011;4563;54.756;9.400;2023-04-15T03:19:32;4.13;;;3.80;;
9056;SDS011;4563;54.756;9.400;2023-04-15T03:21:58;3.67;;;3.37;;
9056;SDS011;4563;54.756;9.400;2023-04-15T03:24:25;4.10;;;3.80;;
9056;SDS011;4563;54.756;9.400;2023-04-15T03:26:55;3.60;;;3.37;;
9056;SDS011;4563;54.756;9.400;2023-04-15T03:29:22;4.03;;;3.70;;
9056;SDS011;4563;54.756;9.400;2023-04-15T03:31:49;4.03;;;3.73;;
9056;SDS011;4563;54.756;9.400;2023-04-15T03:34:17;4.27;;;3.70;;
9056;SDS011;4563;54.756;9.400;2023-04-15T03:36:45;4.33;;;3.93;;
9056;SDS011;4563;54.756;9.400;2023-04-15T03:39:12;4.17;;;3.87;;
9056;SDS011;4563;54.756;9.400;2023-04-15T03:41:38;3.93;;;3.53;;
9056;SDS011;4563;54.756;9.400;2023-04-15T03:44:07;3.43;;;3.23;;
9056;SDS011;4563;54.756;9.400;2023-04-15T03:46:33;3.93;;;3.53;;
9056;SDS011;4563;54.756;9.400;2023-04-15T03:49:00;4.37;;;3.70;;
9056;SDS011;4563;54.756;9.400;2023-04-15T03:51:27;3.87;;;3.53;;
9056;SDS011;4563;54.756;9.400;2023-04-15T03:53:55;3.87;;;3.57;;
9056;SDS011;4563;54.756;9.400;2023-04-15T03:56:22;3.50;;;3.20;;
9056;SDS011;4563;54.756;9.400;2023-04-15T03:58:49;4.67;;;3.17;;
9056;SDS011;4563;54.756;9.400;2023-04-15T04:01:18;3.60;;;3.30;;
9056;SDS011;4563;54.756;9.400;2023-04-15T04:03:44;3.30;;;3.00;;
9056;SDS011;4563;54.756;9.400;2023-04-15T04:06:11;3.20;;;2.93;;
9056;SDS011;4563;54.756;9.400;2023-04-15T04:08:38;3.10;;;2.90;;
9056;SDS011;4563;54.756;9.400;2023-04-15T04:11:05;3.60;;;3.30;;
9056;SDS011;4563;54.756;9.400;2023-04-15T04:13:32;3.17;;;2.73;;
9056;SDS011;4563;54.756;9.400;2023-04-15T04:15:59;2.60;;;2.50;;
9056;SDS011;4563;54.756;9.400;2023-04-15T04:18:27;2.83;;;2.63;;
9056;SDS011;4563;54.756;9.400;2023-04-15T04:20:54;2.83;;;2.63;;
9056;SDS011;4563;54.756;9.400;2023-04-15T04:23:20;2.70;;;2.50;;
9056;SDS011;4563;54.756;9.400;2023-04-15T04:25:47;3.30;;;3.00;;
9056;SDS011;4563;54.756;9.400;2023-04-15T04:28:14;2.73;;;2.57;;
9056;SDS011;4563;54.756;9.400;2023-04-15T04:30:41;2.57;;;2.37;;
9056;SDS011;4563;54.756;9.400;2023-04-15T04:33:08;3.00;;;2.73;;
9056;SDS011;4563;54.756;9.400;2023-04-15T04:35:36;3.47;;;3.20;;
9056;SDS011;4563;54.756;9.400;2023-04-15T04:38:03;2.80;;;2.60;;
9056;SDS011;4563;54.756;9.400;2023-04-15T04:40:29;4.50;;;3.20;;
9056;SDS011;4563;54.756;9.400;2023-04-15T04:42:57;3.20;;;2.90;;
9056;SDS011;4563;54.756;9.400;2023-04-15T04:45:23;3.13;;;2.87;;
9056;SDS011;4563;54.756;9.400;2023-04-15T04:47:51;3.20;;;3.00;;
9056;SDS011;4563;54.756;9.400;2023-04-15T04:50:17;4.40;;;3.00;;
9056;SDS011;4563;54.756;9.400;2023-04-15T04:52:46;3.07;;;2.87;;
9056;SDS011;4563;54.756;9.400;2023-04-15T04:55:12;2.90;;;2.70;;
9056;SDS011;4563;54.756;9.400;2023-04-15T04:57:39;2.67;;;2.47;;
9056;SDS011;4563;54.756;9.400;2023-04-15T05:00:06;4.47;;;2.73;;
9056;SDS011;4563;54.756;9.400;2023-04-15T05:02:34;3.33;;;3.03;;
9056;SDS011;4563;54.756;9.400;2023-04-15T05:05:01;3.93;;;2.80;;
9056;SDS011;4563;54.756;9.400;2023-04-15T05:07:28;4.43;;;3.00;;
9056;SDS011;4563;54.756;9.400;2023-04-15T05:09:56;3.07;;;2.80;;
9056;SDS011;4563;54.756;9.400;2023-04-15T05:12:22;2.83;;;2.63;;
9056;SDS011;4563;54.756;9.400;2023-04-15T05:14:49;3.00;;;2.73;;
9056;SDS011;4563;54.756;9.400;2023-04-15T05:17:16;3.37;;;3.00;;
9056;SDS011;4563;54.756;9.400;2023-04-15T05:19:43;2.90;;;2.70;;
9056;SDS011;4563;54.756;9.400;2023-04-15T05:22:10;2.90;;;2.70;;
9056;SDS011;4563;54.756;9.400;2023-04-15T05:24:37;3.10;;;2.80;;
9056;SDS011;4563;54.756;9.400;2023-04-15T05:27:05;2.67;;;2.57;;
9056;SDS011;4563;54.756;9.400;2023-04-15T05:29:32;3.40;;;3.10;;
9056;SDS011;4563;54.756;9.400;2023-04-15T05:31:59;3.57;;;3.27;;
9056;SDS011;4563;54.756;9.400;2023-04-15T05:34:26;4.90;;;3.33;;
9056;SDS011;4563;54.756;9.400;2023-04-15T05:36:52;4.83;;;3.87;;
9056;SDS011;4563;54.756;9.400;2023-04-15T05:39:19;6.73;;;4.37;;
9056;SDS011;4563;54.756;9.400;2023-04-15T05:41:46;6.93;;;5.00;;
9056;SDS011;4563;54.756;9.400;2023-04-15T05:44:14;7.17;;;5.63;;
9056;SDS011;4563;54.756;9.400;2023-04-15T05:46:41;9.27;;;6.13;;
9056;SDS011;4563;54.756;9.400;2023-04-15T05:49:08;11.50;;;7.40;;
9056;SDS011;4563;54.756;9.400;2023-04-15T05:51:35;9.30;;;7.30;;
9056;SDS011;4563;54.756;9.400;2023-04-15T05:54:02;11.80;;;8.17;;
9056;SDS011;4563;54.756;9.400;2023-04-15T05:56:28;13.40;;;7.97;;
9056;SDS011;4563;54.756;9.400;2023-04-15T05:58:55;14.13;;;8.50;;
9056;SDS011;4563;54.756;9.400;2023-04-15T06:01:23;14.87;;;9.33;;
9056;SDS011;4563;54.756;9.400;2023-04-15T06:03:50;14.40;;;10.30;;
9056;SDS011;4563;54.756;9.400;2023-04-15T06:06:17;19.07;;;10.50;;
9056;SDS011;4563;54.756;9.400;2023-04-15T06:08:44;16.83;;;10.83;;
9056;SDS011;4563;54.756;9.400;2023-04-15T06:11:11;18.37;;;11.27;;
9056;SDS011;4563;54.756;9.400;2023-04-15T06:13:38;20.20;;;11.83;;
9056;SDS011;4563;54.756;9.400;2023-04-15T06:16:05;20.70;;;12.70;;
9056;SDS011;4563;54.756;9.400;2023-04-15T06:18:33;21.10;;;12.67;;
9056;SDS011;4563;54.756;9.400;2023-04-15T06:21:00;21.53;;;13.23;;
9056;SDS011;4563;54.756;9.400;2023-04-15T06:23:27;28.77;;;13.13;;
9056;SDS011;4563;54.756;9.400;2023-04-15T06:25:54;23.07;;;14.80;;
9056;SDS011;4563;54.756;9.400;2023-04-15T06:28:21;24.93;;;13.87;;
9056;SDS011;4563;54.756;9.400;2023-04-15T06:30:48;24.50;;;14.33;;
9056;SDS011;4563;54.756;9.400;2023-04-15T06:33:14;21.40;;;14.17;;
9056;SDS011;4563;54.756;9.400;2023-04-15T06:35:43;24.40;;;13.97;;
9056;SDS011;4563;54.756;9.400;2023-04-15T06:38:09;24.03;;;14.33;;
9056;SDS011;4563;54.756;9.400;2023-04-15T06:40:36;23.47;;;14.97;;
9056;SDS011;4563;54.756;9.400;2023-04-15T06:43:03;24.30;;;14.57;;
9056;SDS011;4563;54.756;9.400;2023-04-15T06:45:30;24.43;;;14.43;;
9056;SDS011;4563;54.756;9.400;2023-04-15T06:47:57;29.17;;;15.23;;
9056;SDS011;4563;54.756;9.400;2023-04-15T06:50:23;26.17;;;14.90;;
9056;SDS011;4563;54.756;9.400;2023-04-15T06:52:52;29.43;;;16.83;;
9056;SDS011;4563;54.756;9.400;2023-04-15T06:55:19;26.30;;;17.40;;
9056;SDS011;4563;54.756;9.400;2023-04-15T06:57:46;25.17;;;16.57;;
9056;SDS011;4563;54.756;9.400;2023-04-15T07:00:13;25.37;;;17.67;;
9056;SDS011;4563;54.756;9.400;2023-04-15T07:02:40;25.57;;;16.70;;
9056;SDS011;4563;54.756;9.400;2023-04-15T07:05:07;32.63;;;18.60;;
9056;SDS011;4563;54.756;9.400;2023-04-15T07:07:34;34.73;;;18.77;;
9056;SDS011;4563;54.756;9.400;2023-04-15T07:10:03;34.50;;;19.13;;
9056;SDS011;4563;54.756;9.400;2023-04-15T07:12:30;38.10;;;20.60;;
9056;SDS011;4563;54.756;9.400;2023-04-15T07:14:57;37.30;;;20.83;;
9056;SDS011;4563;54.756;9.400;2023-04-15T07:17:24;36.43;;;22.00;;
9056;SDS011;4563;54.756;9.400;2023-04-15T07:19:51;38.70;;;21.83;;
9056;SDS011;4563;54.756;9.400;2023-04-15T07:22:17;40.27;;;22.10;;
9056;SDS011;4563;54.756;9.400;2023-04-15T07:24:44;34.37;;;21.33;;
9056;SDS011;4563;54.756;9.400;2023-04-15T07:27:13;35.97;;;22.20;;
9056;SDS011;4563;54.756;9.400;2023-04-15T07:29:40;38.77;;;22.53;;
9056;SDS011;4563;54.756;9.400;2023-04-15T07:32:06;40.17;;;21.10;;
9056;SDS011;4563;54.756;9.400;2023-04-15T07:34:34;33.97;;;21.67;;
9056;SDS011;4563;54.756;9.400;2023-04-15T07:37:01;36.33;;;22.90;;
9056;SDS011;4563;54.756;9.400;2023-04-15T07:39:28;37.17;;;22.17;;
9056;SDS011;4563;54.756;9.400;2023-04-15T07:41:55;38.90;;;22.70;;
9056;SDS011;4563;54.756;9.400;2023-04-15T07:44:24;35.67;;;21.97;;
9056;SDS011;4563;54.756;9.400;2023-04-15T07:46:51;39.03;;;22.37;;
9056;SDS011;4563;54.756;9.400;2023-04-15T07:49:18;32.03;;;21.23;;
9056;SDS011;4563;54.756;9.400;2023-04-15T07:51:45;37.20;;;21.90;;
9056;SDS011;4563;54.756;9.400;2023-04-15T07:54:12;35.73;;;21.50;;
9056;SDS011;4563;54.756;9.400;2023-04-15T07:56:39;39.40;;;22.77;;
9056;SDS011;4563;54.756;9.400;2023-04-15T07:59:06;42.03;;;23.00;;
9056;SDS011;4563;54.756;9.400;2023-04-15T08:01:35;37.53;;;22.83;;
9056;SDS011;4563;54.756;9.400;2023-04-15T08:04:03;32.33;;;21.57;;
9056;SDS011;4563;54.756;9.400;2023-04-15T08:06:30;41.23;;;23.23;;
9056;SDS011;4563;54.756;9.400;2023-04-15T08:08:56;39.57;;;23.23;;
9056;SDS011;4563;54.756;9.400;2023-04-15T08:11:23;35.33;;;23.07;;
9056;SDS011;4563;54.756;9.400;2023-04-15T08:13:50;37.10;;;23.30;;
9056;SDS011;4563;54.756;9.400;2023-04-15T08:16:18;40.43;;;22.20;;
9056;SDS011;4563;54.756;9.400;2023-04-15T08:18:48;37.43;;;23.77;;
9056;SDS011;4563;54.756;9.400;2023-04-15T08:21:18;39.30;;;24.77;;
9056;SDS011;4563;54.756;9.400;2023-04-15T08:23:45;42.10;;;23.70;;
9056;SDS011;4563;54.756;9.400;2023-04-15T08:26:13;39.30;;;24.27;;
9056;SDS011;4563;54.756;9.400;2023-04-15T08:28:41;39.87;;;23.20;;
9056;SDS011;4563;54.756;9.400;2023-04-15T08:31:09;37.33;;;23.83;;
9056;SDS011;4563;54.756;9.400;2023-04-15T08:33:37;37.67;;;23.73;;
9056;SDS011;4563;54.756;9.400;2023-04-15T08:36:05;36.80;;;22.53;;
9056;SDS011;4563;54.756;9.400;2023-04-15T08:38:33;42.67;;;24.00;;
9056;SDS011;4563;54.756;9.400;2023-04-15T08:41:02;41.03;;;23.30;;
9056;SDS011;4563;54.756;9.400;2023-04-15T08:43:33;37.33;;;23.67;;
9056;SDS011;4563;54.756;9.400;2023-04-15T08:46:02;37.03;;;22.97;;
9056;SDS011;4563;54.756;9.400;2023-04-15T08:48:31;33.50;;;21.57;;
9056;SDS011;4563;54.756;9.400;2023-04-15T08:51:01;28.90;;;20.93;;
9056;SDS011;4563;54.756;9.400;2023-04-15T08:53:32;32.70;;;21.63;;
9056;SDS011;4563;54.756;9.400;2023-04-15T08:55:59;32.13;;;21.23;;
9056;SDS011;4563;54.756;9.400;2023-04-15T08:58:29;31.10;;;20.93;;
9056;SDS011;4563;54.756;9.400;2023-04-15T09:00:56;30.30;;;19.57;;
9056;SDS011;4563;54.756;9.400;2023-04-15T09:03:23;30.77;;;20.10;;
9056;SDS011;4563;54.756;9.400;2023-04-15T09:05:51;26.90;;;19.40;;
9056;SDS011;4563;54.756;9.400;2023-04-15T09:08:18;26.83;;;20.37;;
9056;SDS011;4563;54.756;9.400;2023-04-15T09:10:47;30.00;;;19.40;;
9056;SDS011;4563;54.756;9.400;2023-04-15T09:13:15;30.47;;;19.93;;
9056;SDS011;4563;54.756;9.400;2023-04-15T09:15:42;27.47;;;18.43;;
9056;SDS011;4563;54.756;9.400;2023-04-15T09:18:10;30.57;;;19.93;;
9056;SDS011;4563;54.756;9.400;2023-04-15T09:20:38;26.63;;;18.17;;
9056;SDS011;4563;54.756;9.400;2023-04-15T09:23:10;27.37;;;19.50;;
9056;SDS011;4563;54.756;9.400;2023-04-15T09:25:38;27.10;;;19.50;;
9056;SDS011;4563;54.756;9.400;2023-04-15T09:28:07;25.07;;;17.80;;
9056;SDS011;4563;54.756;9.400;2023-04-15T09:30:34;30.43;;;20.10;;
9056;SDS011;4563;54.756;9.400;2023-04-15T09:33:02;23.47;;;17.43;;
9056;SDS011;4563;54.756;9.400;2023-04-15T09:35:32;26.27;;;17.90;;
9056;SDS011;4563;54.756;9.400;2023-04-15T09:38:01;23.97;;;18.30;;
9056;SDS011;4563;54.756;9.400;2023-04-15T09:40:32;25.77;;;18.00;;
9056;SDS011;4563;54.756;9.400;2023-04-15T09:43:00;21.03;;;16.83;;
9056;SDS011;4563;54.756;9.400;2023-04-15T09:45:29;25.33;;;17.50;;
9056;SDS011;4563;54.756;9.400;2023-04-15T09:47:57;24.17;;;18.37;;
9056;SDS011;4563;54.756;9.400;2023-04-15T09:50:26;20.40;;;16.80;;
9056;SDS011;4563;54.756;9.400;2023-04-15T09:52:54;20.97;;;17.03;;
9056;SDS011;4563;54.756;9.400;2023-04-15T09:55:21;22.07;;;17.37;;
9056;SDS011;4563;54.756;9.400;2023-04-15T09:57:50;20.00;;;16.23;;
9056;SDS011;4563;54.756;9.400;2023-04-15T10:00:16;20.27;;;16.43;;
9056;SDS011;4563;54.756;9.400;2023-04-15T10:02:46;20.87;;;17.10;;
9056;SDS011;4563;54.756;9.400;2023-04-15T10:05:14;21.20;;;16.07;;
9056;SDS011;4563;54.756;9.400;2023-04-15T10:07:41;18.30;;;15.80;;
9056;SDS011;4563;54.756;9.400;2023-04-15T10:10:09;19.80;;;16.63;;
9056;SDS011;4563;54.756;9.400;2023-04-15T10:12:38;23.17;;;15.77;;
9056;SDS011;4563;54.756;9.400;2023-04-15T10:15:08;17.60;;;15.20;;
9056;SDS011;4563;54.756;9.400;2023-04-15T10:17:40;18.40;;;15.07;;
9056;SDS011;4563;54.756;9.400;2023-04-15T10:20:11;21.87;;;15.67;;
9056;SDS011;4563;54.756;9.400;2023-04-15T10:22:40;19.67;;;15.03;;
9056;SDS011;4563;54.756;9.400;2023-04-15T10:25:09;18.67;;;13.17;;
9056;SDS011;4563;54.756;9.400;2023-04-15T10:27:38;19.27;;;14.47;;
9056;SDS011;4563;54.756;9.400;2023-04-15T10:30:06;16.70;;;14.60;;
9056;SDS011;4563;54.756;9.400;2023-04-15T10:32:34;19.13;;;14.33;;
9056;SDS011;4563;54.756;9.400;2023-04-15T10:35:03;16.17;;;14.27;;
9056;SDS011;4563;54.756;9.400;2023-04-15T10:37:35;17.07;;;14.77;;
9056;SDS011;4563;54.756;9.400;2023-04-15T10:42:50;19.90;;;14.93;;
9056;SDS011;4563;54.756;9.400;2023-04-15T10:45:17;18.97;;;14.83;;
9056;SDS011;4563;54.756;9.400;2023-04-15T10:47:44;16.97;;;15.07;;
9056;SDS011;4563;54.756;9.400;2023-04-15T10:50:12;18.07;;;14.37;;
9056;SDS011;4563;54.756;9.400;2023-04-15T10:52:41;18.57;;;15.17;;
9056;SDS011;4563;54.756;9.400;2023-04-15T10:55:11;20.10;;;14.23;;
9056;SDS011;4563;54.756;9.400;2023-04-15T10:57:40;19.03;;;13.87;;
9056;SDS011;4563;54.756;9.400;2023-04-15T11:00:09;19.50;;;14.00;;
9056;SDS011;4563;54.756;9.400;2023-04-15T11:02:38;16.37;;;13.50;;
9056;SDS011;4563;54.756;9.400;2023-04-15T11:05:07;15.23;;;13.00;;
9056;SDS011;4563;54.756;9.400;2023-04-15T11:07:48;14.63;;;12.53;;
9056;SDS011;4563;54.756;9.400;2023-04-15T11:13:21;13.50;;;12.13;;
9056;SDS011;4563;54.756;9.400;2023-04-15T11:15:56;15.13;;;11.43;;
9056;SDS011;4563;54.756;9.400;2023-04-15T11:18:26;17.57;;;11.87;;
9056;SDS011;4563;54.756;9.400;2023-04-15T11:20:55;13.00;;;11.00;;
9056;SDS011;4563;54.756;9.400;2023-04-15T11:23:28;13.50;;;11.30;;
9056;SDS011;4563;54.756;9.400;2023-04-15T11:25:57;12.90;;;11.53;;
9056;SDS011;4563;54.756;9.400;2023-04-15T11:28:27;14.13;;;11.70;;
9056;SDS011;4563;54.756;9.400;2023-04-15T11:30:56;14.57;;;12.03;;
9056;SDS011;4563;54.756;9.400;2023-04-15T11:33:24;12.37;;;10.97;;
9056;SDS011;4563;54.756;9.400;2023-04-15T11:35:51;13.63;;;11.77;;
9056;SDS011;4563;54.756;9.400;2023-04-15T11:38:19;12.87;;;11.47;;
9056;SDS011;4563;54.756;9.400;2023-04-15T11:40:47;13.00;;;11.67;;
9056;SDS011;4563;54.756;9.400;2023-04-15T11:43:16;12.77;;;11.20;;
9056;SDS011;4563;54.756;9.400;2023-04-15T11:45:49;13.63;;;11.57;;
9056;SDS011;4563;54.756;9.400;2023-04-15T11:48:18;12.90;;;9.70;;
9056;SDS011;4563;54.756;9.400;2023-04-15T11:50:50;12.30;;;10.47;;
9056;SDS011;4563;54.756;9.400;2023-04-15T11:53:19;14.07;;;10.40;;
9056;SDS011;4563;54.756;9.400;2023-04-15T11:55:48;13.00;;;10.80;;
9056;SDS011;4563;54.756;9.400;2023-04-15T11:58:16;11.07;;;9.23;;
9056;SDS011;4563;54.756;9.400;2023-04-15T12:00:45;11.97;;;10.50;;
9056;SDS011;4563;54.756;9.400;2023-04-15T12:03:13;11.97;;;10.13;;
9056;SDS011;4563;54.756;9.400;2023-04-15T12:06:04;12.30;;;10.50;;
9056;SDS011;4563;54.756;9.400;2023-04-15T12:11:20;12.83;;;10.17;;
9056;SDS011;4563;54.756;9.400;2023-04-15T12:13:54;8.90;;;7.60;;
9056;SDS011;4563;54.756;9.400;2023-04-15T12:16:22;8.57;;;7.27;;
9056;SDS011;4563;54.756;9.400;2023-04-15T12:18:50;8.20;;;7.50;;
9056;SDS011;4563;54.756;9.400;2023-04-15T12:21:20;8.40;;;7.53;;
9056;SDS011;4563;54.756;9.400;2023-04-15T12:23:47;8.67;;;7.83;;
9056;SDS011;4563;54.756;9.400;2023-04-15T12:26:26;8.40;;;7.57;;
9056;SDS011;4563;54.756;9.400;2023-04-15T12:28:58;11.30;;;7.50;;
9056;SDS011;4563;54.756;9.400;2023-04-15T12:31:27;8.70;;;7.80;;
9056;SDS011;4563;54.756;9.400;2023-04-15T12:33:54;9.20;;;8.13;;
9056;SDS011;4563;54.756;9.400;2023-04-15T12:36:22;9.13;;;8.13;;
9056;SDS011;4563;54.756;9.400;2023-04-15T12:38:49;13.33;;;8.60;;
9056;SDS011;4563;54.756;9.400;2023-04-15T12:41:16;9.13;;;7.73;;
9056;SDS011;4563;54.756;9.400;2023-04-15T12:43:45;8.63;;;7.57;;
9056;SDS011;4563;54.756;9.400;2023-04-15T12:46:13;8.63;;;7.57;;
9056;SDS011;4563;54.756;9.400;2023-04-15T12:48:41;9.53;;;7.60;;
9056;SDS011;4563;54.756;9.400;2023-04-15T12:51:07;9.80;;;8.27;;
9056;SDS011;4563;54.756;9.400;2023-04-15T12:53:35;10.73;;;7.40;;
9056;SDS011;4563;54.756;9.400;2023-04-15T12:56:03;8.80;;;7.90;;
9056;SDS011;4563;54.756;9.400;2023-04-15T12:58:31;12.50;;;7.53;;
9056;SDS011;4563;54.756;9.400;2023-04-15T13:00:59;9.33;;;7.77;;
9056;SDS011;4563;54.756;9.400;2023-04-15T13:03:27;10.00;;;7.77;;
9056;SDS011;4563;54.756;9.400;2023-04-15T13:05:57;7.90;;;7.20;;
9056;SDS011;4563;54.756;9.400;2023-04-15T13:08:28;7.80;;;7.10;;
9056;SDS011;4563;54.756;9.400;2023-04-15T13:10:55;8.77;;;7.27;;
9056;SDS011;4563;54.756;9.400;2023-04-15T13:13:22;8.10;;;7.30;;
9056;SDS011;4563;54.756;9.400;2023-04-15T13:15:49;8.37;;;7.50;;
9056;SDS011;4563;54.756;9.400;2023-04-15T13:18:17;7.23;;;6.67;;
9056;SDS011;4563;54.756;9.400;2023-04-15T13:20:44;8.17;;;7.30;;
9056;SDS011;4563;54.756;9.400;2023-04-15T13:23:12;12.50;;;7.73;;
9056;SDS011;4563;54.756;9.400;2023-04-15T13:25:39;9.13;;;7.83;;
9056;SDS011;4563;54.756;9.400;2023-04-15T13:28:07;8.50;;;7.27;;
9056;SDS011;4563;54.756;9.400;2023-04-15T13:30:38;8.93;;;7.80;;
9056;SDS011;4563;54.756;9.400;2023-04-15T13:33:05;8.70;;;7.10;;
9056;SDS011;4563;54.756;9.400;2023-04-15T13:35:34;7.07;;;5.93;;
9056;SDS011;4563;54.756;9.400;2023-04-15T13:38:01;9.10;;;6.73;;
9056;SDS011;4563;54.756;9.400;2023-04-15T13:40:28;10.83;;;6.63;;
9056;SDS011;4563;54.756;9.400;2023-04-15T13:42:55;7.30;;;6.60;;
9056;SDS011;4563;54.756;9.400;2023-04-15T13:45:22;6.50;;;5.97;;
9056;SDS011;4563;54.756;9.400;2023-04-15T13:47:49;7.57;;;6.90;;
9056;SDS011;4563;54.756;9.400;2023-04-15T13:50:16;8.33;;;6.40;;
9056;SDS011;4563;54.756;9.400;2023-04-15T13:52:44;9.30;;;6.63;;
9056;SDS011;4563;54.756;9.400;2023-04-15T13:55:11;7.27;;;6.67;;
9056;SDS011;4563;54.756;9.400;2023-04-15T13:57:38;7.17;;;6.47;;
9056;SDS011;4563;54.756;9.400;2023-04-15T14:00:06;7.20;;;5.70;;
9056;SDS011;4563;54.756;9.400;2023-04-15T14:02:33;7.53;;;6.80;;
9056;SDS011;4563;54.756;9.400;2023-04-15T14:05:01;7.47;;;6.83;;
9056;SDS011;4563;54.756;9.400;2023-04-15T14:07:28;6.80;;;6.20;;
9056;SDS011;4563;54.756;9.400;2023-04-15T14:09:57;9.37;;;7.07;;
9056;SDS011;4563;54.756;9.400;2023-04-15T14:12:24;7.63;;;6.93;;
9056;SDS011;4563;54.756;9.400;2023-04-15T14:14:50;7.57;;;6.87;;
9056;SDS011;4563;54.756;9.400;2023-04-15T14:17:18;10.83;;;6.60;;
9056;SDS011;4563;54.756;9.400;2023-04-15T14:19:45;6.07;;;5.50;;
9056;SDS011;4563;54.756;9.400;2023-04-15T14:22:12;7.50;;;6.23;;
9056;SDS011;4563;54.756;9.400;2023-04-15T14:24:39;7.20;;;6.00;;
9056;SDS011;4563;54.756;9.400;2023-04-15T14:27:07;7.13;;;5.67;;
9056;SDS011;4563;54.756;9.400;2023-04-15T14:29:36;6.30;;;5.70;;
9056;SDS011;4563;54.756;9.400;2023-04-15T14:32:03;6.70;;;6.10;;
9056;SDS011;4563;54.756;9.400;2023-04-15T14:34:30;7.67;;;6.70;;
9056;SDS011;4563;54.756;9.400;2023-04-15T14:36:57;6.30;;;5.70;;
9056;SDS011;4563;54.756;9.400;2023-04-15T14:39:24;5.67;;;5.13;;
9056;SDS011;4563;54.756;9.400;2023-04-15T14:41:52;6.63;;;5.63;;
9056;SDS011;4563;54.756;9.400;2023-04-15T14:44:21;7.30;;;6.53;;
9056;SDS011;4563;54.756;9.400;2023-04-15T14:46:48;6.40;;;5.80;;
9056;SDS011;4563;54.756;9.400;2023-04-15T14:49:16;6.70;;;5.63;;
9056;SDS011;4563;54.756;9.400;2023-04-15T14:51:43;6.70;;;6.10;;
9056;SDS011;4563;54.756;9.400;2023-04-15T14:54:10;6.17;;;5.63;;
9056;SDS011;4563;54.756;9.400;2023-04-15T14:56:37;8.93;;;6.07;;
9056;SDS011;4563;54.756;9.400;2023-04-15T14:59:04;5.70;;;5.20;;
9056;SDS011;4563;54.756;9.400;2023-04-15T15:01:32;9.50;;;6.43;;
9056;SDS011;4563;54.756;9.400;2023-04-15T15:04:02;8.33;;;6.10;;
9056;SDS011;4563;54.756;9.400;2023-04-15T15:06:29;5.70;;;5.20;;
9056;SDS011;4563;54.756;9.400;2023-04-15T15:08:58;7.10;;;6.47;;
9056;SDS011;4563;54.756;9.400;2023-04-15T15:11:26;7.13;;;6.53;;
9056;SDS011;4563;54.756;9.400;2023-04-15T15:13:53;8.93;;;7.13;;